createdAt,value
2023-09-28T00:00:26.315Z,0.00
2023-09-28T00:01:26.361Z,0.00
2023-09-28T00:02:26.340Z,0.00
2023-09-28T00:03:26.374Z,0.00
2023-09-28T00:04:26.279Z,0.00
2023-09-28T00:05:26.274Z,0.00
2023-09-28T00:06:26.254Z,0.00
2023-09-28T00:07:26.231Z,0.00
2023-09-28T00:08:26.248Z,0.00
2023-09-28T00:09:26.215Z,0.00
2023-09-28T00:10:26.204Z,0.00
2023-09-28T00:11:26.192Z,0.00
2023-09-28T00:12:26.177Z,0.00
2023-09-28T00:13:26.187Z,0.00
2023-09-28T00:14:26.170Z,0.00
2023-09-28T00:15:26.139Z,0.00
2023-09-28T00:16:26.170Z,0.00
2023-09-28T00:17:26.223Z,0.00
2023-09-28T00:18:26.212Z,0.00
2023-09-28T00:19:26.097Z,0.00
2023-09-28T00:20:26.107Z,0.00
2023-09-28T00:21:26.075Z,0.00
2023-09-28T00:22:26.081Z,0.00
2023-09-28T00:23:26.053Z,0.00
2023-09-28T00:24:26.111Z,0.00
2023-09-28T00:25:26.029Z,0.00
2023-09-28T00:26:26.025Z,0.00
2023-09-28T00:27:26.011Z,0.00
2023-09-28T00:28:26.004Z,0.00
2023-09-28T00:29:26.028Z,0.00
2023-09-28T00:30:25.981Z,0.00
2023-09-28T00:31:25.991Z,0.00
2023-09-28T00:32:25.965Z,0.00
2023-09-28T00:33:25.943Z,0.00
2023-09-28T00:34:25.938Z,0.00
2023-09-28T00:35:25.946Z,0.00
2023-09-28T00:36:25.915Z,0.00
2023-09-28T00:37:25.902Z,0.00
2023-09-28T00:38:25.891Z,0.00
2023-09-28T00:39:25.880Z,0.00
2023-09-28T00:40:25.875Z,0.00
2023-09-28T00:41:25.892Z,0.00
2023-09-28T00:42:25.853Z,0.00
2023-09-28T00:43:25.836Z,0.00
2023-09-28T00:44:25.832Z,0.00
2023-09-28T00:45:25.815Z,0.00
2023-09-28T00:46:25.843Z,0.00
2023-09-28T00:47:25.815Z,0.00
2023-09-28T00:48:25.788Z,0.00
2023-09-28T00:49:25.767Z,0.00
2023-09-28T00:50:25.763Z,0.00
2023-09-28T00:51:25.747Z,0.00
2023-09-28T00:52:25.777Z,0.00
2023-09-28T00:53:25.725Z,0.00
2023-09-28T00:54:25.718Z,0.00
2023-09-28T00:55:25.706Z,0.00
2023-09-28T00:56:25.718Z,0.00
2023-09-28T00:57:25.689Z,0.00
2023-09-28T00:58:25.723Z,0.00
2023-09-28T00:59:25.664Z,0.00
2023-09-28T01:00:25.730Z,0.00
2023-09-28T01:01:25.644Z,0.00
2023-09-28T01:02:25.650Z,0.00
2023-09-28T01:03:25.694Z,0.00
2023-09-28T01:04:25.615Z,0.00
2023-09-28T01:05:25.593Z,0.00
2023-09-28T01:06:25.585Z,0.00
2023-09-28T01:07:25.573Z,0.00
2023-09-28T01:08:25.581Z,0.00
2023-09-28T01:09:25.563Z,0.00
2023-09-28T01:10:25.594Z,0.00
2023-09-28T01:11:25.520Z,0.00
2023-09-28T01:12:25.513Z,0.00
2023-09-28T01:13:25.526Z,0.00
2023-09-28T01:14:25.503Z,0.00
2023-09-28T01:15:25.483Z,0.00
2023-09-28T01:16:25.549Z,0.00
2023-09-28T01:17:25.513Z,0.00
2023-09-28T01:18:25.503Z,0.00
2023-09-28T01:19:25.476Z,0.00
2023-09-28T01:20:25.420Z,0.00
2023-09-28T01:21:25.407Z,0.00
2023-09-28T01:22:25.397Z,0.00
2023-09-28T01:23:25.381Z,0.00
2023-09-28T01:24:25.383Z,0.00
2023-09-28T01:25:25.379Z,0.00
2023-09-28T01:26:25.359Z,0.00
2023-09-28T01:27:25.339Z,0.00
2023-09-28T01:28:25.338Z,0.00
2023-09-28T01:29:25.314Z,0.00
2023-09-28T01:30:25.329Z,0.00
2023-09-28T01:31:25.292Z,0.00
2023-09-28T01:32:25.288Z,0.00
2023-09-28T01:33:25.272Z,0.00
2023-09-28T01:34:25.263Z,0.00
2023-09-28T01:35:25.269Z,0.00
2023-09-28T01:36:25.254Z,0.00
2023-09-28T01:37:25.228Z,0.00
2023-09-28T01:38:25.222Z,0.00
2023-09-28T01:39:25.209Z,0.00
2023-09-28T01:40:25.195Z,0.00
2023-09-28T01:41:25.206Z,0.00
2023-09-28T01:42:25.185Z,0.00
2023-09-28T01:43:25.162Z,0.00
2023-09-28T01:44:25.149Z,0.00
2023-09-28T01:45:25.143Z,0.00
2023-09-28T01:46:25.171Z,0.00
2023-09-28T01:47:25.152Z,0.00
2023-09-28T01:48:25.101Z,0.00
2023-09-28T01:49:25.105Z,0.00
2023-09-28T01:50:25.081Z,0.00
2023-09-28T01:51:25.077Z,0.00
2023-09-28T01:52:25.077Z,0.00
2023-09-28T01:53:25.091Z,0.00
2023-09-28T01:54:25.036Z,0.00
2023-09-28T01:55:25.030Z,0.00
2023-09-28T01:56:25.028Z,0.00
2023-09-28T01:57:25.005Z,0.00
2023-09-28T01:58:25.015Z,0.00
2023-09-28T01:59:24.992Z,0.00
2023-09-28T02:00:24.970Z,0.00
2023-09-28T02:01:24.984Z,0.00
2023-09-28T02:02:24.970Z,0.00
2023-09-28T02:03:24.961Z,0.00
2023-09-28T02:04:24.923Z,0.00
2023-09-28T02:05:24.919Z,0.00
2023-09-28T02:06:24.922Z,0.00
2023-09-28T02:07:24.893Z,0.00
2023-09-28T02:08:24.905Z,0.00
2023-09-28T02:09:24.878Z,0.00
2023-09-28T02:10:24.856Z,0.00
2023-09-28T02:11:24.852Z,0.00
2023-09-28T02:12:24.834Z,0.00
2023-09-28T02:13:24.858Z,0.00
2023-09-28T02:14:24.819Z,0.00
2023-09-28T02:15:24.810Z,0.00
2023-09-28T02:16:24.825Z,0.00
2023-09-28T02:17:24.802Z,0.00
2023-09-28T02:18:24.801Z,0.00
2023-09-28T02:19:24.763Z,0.00
2023-09-28T02:20:24.933Z,0.00
2023-09-28T02:21:24.739Z,0.00
2023-09-28T02:22:24.729Z,0.00
2023-09-28T02:23:24.789Z,0.00
2023-09-28T02:24:24.740Z,0.00
2023-09-28T02:25:24.696Z,0.00
2023-09-28T02:26:24.685Z,0.00
2023-09-28T02:27:24.674Z,0.00
2023-09-28T02:28:24.662Z,0.00
2023-09-28T02:29:24.661Z,0.00
2023-09-28T02:30:25.183Z,0.00
2023-09-28T02:31:24.686Z,0.00
2023-09-28T02:32:24.640Z,0.00
2023-09-28T02:33:24.616Z,0.00
2023-09-28T02:34:24.597Z,0.00
2023-09-28T02:35:24.617Z,0.00
2023-09-28T02:36:24.570Z,0.00
2023-09-28T02:37:24.562Z,0.00
2023-09-28T02:38:24.631Z,0.00
2023-09-28T02:39:24.550Z,0.00
2023-09-28T02:40:24.551Z,0.00
2023-09-28T02:41:24.523Z,0.00
2023-09-28T02:42:24.499Z,0.00
2023-09-28T02:43:24.502Z,0.00
2023-09-28T02:44:24.515Z,0.00
2023-09-28T02:45:24.496Z,0.00
2023-09-28T02:46:24.500Z,0.00
2023-09-28T02:47:24.466Z,0.00
2023-09-28T02:48:24.437Z,0.00
2023-09-28T02:49:24.426Z,0.00
2023-09-28T02:50:24.479Z,0.00
2023-09-28T02:51:24.428Z,0.00
2023-09-28T02:52:24.393Z,0.00
2023-09-28T02:53:24.402Z,0.00
2023-09-28T02:54:24.369Z,0.00
2023-09-28T02:55:24.360Z,0.00
2023-09-28T02:56:24.378Z,0.00
2023-09-28T02:57:24.343Z,0.00
2023-09-28T02:58:24.329Z,0.00
2023-09-28T02:59:24.323Z,0.00
2023-09-28T03:00:24.372Z,0.00
2023-09-28T03:01:24.304Z,0.00
2023-09-28T03:02:24.338Z,0.00
2023-09-28T03:03:24.279Z,0.00
2023-09-28T03:04:24.256Z,0.00
2023-09-28T03:05:24.346Z,0.00
2023-09-28T03:06:24.236Z,0.00
2023-09-28T03:07:24.259Z,0.00
2023-09-28T03:08:24.232Z,0.00
2023-09-28T03:09:24.208Z,0.00
2023-09-28T03:10:24.195Z,0.00
2023-09-28T03:11:24.182Z,0.00
2023-09-28T03:12:24.167Z,0.00
2023-09-28T03:13:24.185Z,0.00
2023-09-28T03:14:24.181Z,0.00
2023-09-28T03:15:24.144Z,0.00
2023-09-28T03:16:24.210Z,0.00
2023-09-28T03:17:24.127Z,0.00
2023-09-28T03:18:24.118Z,0.00
2023-09-28T03:19:24.094Z,0.00
2023-09-28T03:20:24.129Z,0.00
2023-09-28T03:21:24.084Z,0.00
2023-09-28T03:22:24.050Z,0.00
2023-09-28T03:23:24.124Z,0.00
2023-09-28T03:24:24.029Z,0.00
2023-09-28T03:25:24.017Z,0.00
2023-09-28T03:26:24.005Z,0.00
2023-09-28T03:27:23.997Z,0.00
2023-09-28T03:28:23.979Z,0.00
2023-09-28T03:29:24.092Z,0.00
2023-09-28T03:30:23.968Z,0.00
2023-09-28T03:31:23.971Z,0.00
2023-09-28T03:32:23.977Z,0.00
2023-09-28T03:33:23.964Z,0.00
2023-09-28T03:34:23.914Z,0.00
2023-09-28T03:35:23.930Z,0.00
2023-09-28T03:36:23.884Z,0.00
2023-09-28T03:37:23.878Z,0.00
2023-09-28T03:38:23.895Z,0.00
2023-09-28T03:39:23.856Z,0.00
2023-09-28T03:40:23.874Z,0.00
2023-09-28T03:41:23.831Z,0.00
2023-09-28T03:42:23.819Z,0.00
2023-09-28T03:43:23.811Z,0.00
2023-09-28T03:44:23.869Z,0.00
2023-09-28T03:45:23.796Z,0.00
2023-09-28T03:46:23.827Z,0.00
2023-09-28T03:47:23.784Z,0.00
2023-09-28T03:48:23.748Z,0.00
2023-09-28T03:49:23.744Z,0.00
2023-09-28T03:50:24.013Z,0.00
2023-09-28T03:51:23.741Z,0.00
2023-09-28T03:52:23.706Z,0.00
2023-09-28T03:53:23.743Z,0.00
2023-09-28T03:54:23.681Z,0.00
2023-09-28T03:55:23.689Z,0.00
2023-09-28T03:56:23.695Z,0.00
2023-09-28T03:57:23.655Z,0.00
2023-09-28T03:58:23.635Z,0.00
2023-09-28T03:59:23.637Z,0.00
2023-09-28T04:00:23.616Z,0.00
2023-09-28T04:01:23.653Z,0.00
2023-09-28T04:02:23.675Z,0.00
2023-09-28T04:03:23.667Z,0.00
2023-09-28T04:04:23.565Z,0.00
2023-09-28T04:05:23.573Z,0.00
2023-09-28T04:06:23.567Z,0.00
2023-09-28T04:07:23.558Z,0.00
2023-09-28T04:08:23.592Z,0.00
2023-09-28T04:09:23.512Z,0.00
2023-09-28T04:10:24.826Z,0.00
2023-09-28T04:11:23.520Z,0.00
2023-09-28T04:12:23.475Z,0.00
2023-09-28T04:13:23.472Z,0.00
2023-09-28T04:14:23.504Z,0.00
2023-09-28T04:15:23.444Z,0.00
2023-09-28T04:16:23.450Z,0.00
2023-09-28T04:17:23.510Z,0.00
2023-09-28T04:18:23.443Z,0.00
2023-09-28T04:19:23.401Z,0.00
2023-09-28T04:20:23.419Z,0.00
2023-09-28T04:21:23.373Z,0.00
2023-09-28T04:22:23.402Z,0.00
2023-09-28T04:23:23.440Z,0.00
2023-09-28T04:24:23.342Z,0.00
2023-09-28T04:25:23.357Z,0.00
2023-09-28T04:26:23.335Z,0.00
2023-09-28T04:27:23.305Z,0.00
2023-09-28T04:28:23.310Z,0.00
2023-09-28T04:29:23.311Z,0.00
2023-09-28T04:30:23.702Z,0.00
2023-09-28T04:31:23.274Z,0.00
2023-09-28T04:32:23.257Z,0.00
2023-09-28T04:33:23.314Z,0.00
2023-09-28T04:34:23.228Z,0.00
2023-09-28T04:35:23.299Z,0.00
2023-09-28T04:36:23.208Z,0.00
2023-09-28T04:37:23.193Z,0.00
2023-09-28T04:38:23.240Z,0.00
2023-09-28T04:39:23.194Z,0.00
2023-09-28T04:40:23.155Z,0.00
2023-09-28T04:41:23.168Z,0.00
2023-09-28T04:42:23.148Z,0.00
2023-09-28T04:43:23.127Z,0.00
2023-09-28T04:44:23.187Z,0.00
2023-09-28T04:45:23.102Z,0.00
2023-09-28T04:46:23.125Z,0.00
2023-09-28T04:47:23.140Z,0.00
2023-09-28T04:48:23.057Z,0.00
2023-09-28T04:49:23.059Z,0.00
2023-09-28T04:50:23.167Z,0.00
2023-09-28T04:51:23.035Z,0.00
2023-09-28T04:52:23.017Z,0.00
2023-09-28T04:53:23.052Z,0.00
2023-09-28T04:54:22.992Z,0.00
2023-09-28T04:55:23.015Z,0.00
2023-09-28T04:56:23.005Z,0.00
2023-09-28T04:57:22.973Z,0.00
2023-09-28T04:58:22.952Z,0.00
2023-09-28T04:59:22.992Z,0.00
2023-09-28T05:00:22.950Z,4.00
2023-09-28T05:01:22.938Z,4.00
2023-09-28T05:02:23.020Z,0.00
2023-09-28T05:03:22.937Z,4.00
2023-09-28T05:04:22.881Z,4.00
2023-09-28T05:05:22.928Z,4.00
2023-09-28T05:06:22.867Z,8.00
2023-09-28T05:07:22.873Z,4.00
2023-09-28T05:08:22.854Z,8.00
2023-09-28T05:09:22.834Z,12.00
2023-09-28T05:10:22.844Z,12.00
2023-09-28T05:11:22.830Z,16.00
2023-09-28T05:12:22.793Z,16.00
2023-09-28T05:13:22.787Z,20.00
2023-09-28T05:14:22.819Z,24.00
2023-09-28T05:15:22.818Z,24.00
2023-09-28T05:16:22.784Z,28.00
2023-09-28T05:17:22.815Z,32.00
2023-09-28T05:18:22.735Z,36.00
2023-09-28T05:19:22.723Z,44.00
2023-09-28T05:20:25.820Z,48.00
2023-09-28T05:21:22.718Z,52.00
2023-09-28T05:22:22.681Z,60.00
2023-09-28T05:23:22.692Z,68.00
2023-09-28T05:24:22.672Z,76.00
2023-09-28T05:25:22.682Z,80.00
2023-09-28T05:26:22.743Z,92.00
2023-09-28T05:27:22.658Z,100.00
2023-09-28T05:28:22.620Z,112.00
2023-09-28T05:29:22.642Z,120.00
2023-09-28T05:30:22.589Z,132.00
2023-09-28T05:31:22.705Z,140.00
2023-09-28T05:32:22.732Z,148.00
2023-09-28T05:33:22.574Z,160.00
2023-09-28T05:34:22.549Z,168.00
2023-09-28T05:35:22.633Z,180.00
2023-09-28T05:36:24.600Z,192.00
2023-09-28T05:37:22.524Z,204.00
2023-09-28T05:38:22.600Z,216.00
2023-09-28T05:39:22.496Z,224.00
2023-09-28T05:40:22.479Z,240.00
2023-09-28T05:41:22.515Z,252.00
2023-09-28T05:42:22.477Z,268.00
2023-09-28T05:43:22.476Z,284.00
2023-09-28T05:44:22.492Z,300.00
2023-09-28T05:45:22.486Z,312.00
2023-09-28T05:46:22.417Z,328.00
2023-09-28T05:47:22.499Z,348.00
2023-09-28T05:48:22.419Z,364.00
2023-09-28T05:49:22.385Z,380.00
2023-09-28T05:50:22.402Z,400.00
2023-09-28T05:51:22.371Z,420.00
2023-09-28T05:52:22.350Z,440.00
2023-09-28T05:53:22.404Z,460.00
2023-09-28T05:54:22.328Z,480.00
2023-09-28T05:55:22.316Z,504.00
2023-09-28T05:56:22.393Z,524.00
2023-09-28T05:57:22.287Z,544.00
2023-09-28T05:58:22.294Z,564.00
2023-09-28T05:59:22.277Z,584.00
2023-09-28T06:00:22.259Z,604.00
2023-09-28T06:01:22.265Z,624.00
2023-09-28T06:02:24.308Z,644.00
2023-09-28T06:03:22.431Z,668.00
2023-09-28T06:04:22.206Z,688.00
2023-09-28T06:05:22.220Z,708.00
2023-09-28T06:06:22.202Z,736.00
2023-09-28T06:07:22.166Z,760.00
2023-09-28T06:08:22.175Z,780.00
2023-09-28T06:09:22.143Z,808.00
2023-09-28T06:10:22.251Z,832.00
2023-09-28T06:11:22.137Z,852.00
2023-09-28T06:12:22.116Z,876.00
2023-09-28T06:13:22.101Z,904.00
2023-09-28T06:14:22.163Z,928.00
2023-09-28T06:15:22.079Z,952.00
2023-09-28T06:16:22.107Z,976.00
2023-09-28T06:17:22.188Z,996.00
2023-09-28T06:18:22.047Z,1016.00
2023-09-28T06:19:22.036Z,1028.00
2023-09-28T06:20:22.073Z,1052.00
2023-09-28T06:21:22.014Z,1068.00
2023-09-28T06:22:21.994Z,1088.00
2023-09-28T06:23:22.023Z,1108.00
2023-09-28T06:24:21.983Z,1124.00
2023-09-28T06:25:21.981Z,1144.00
2023-09-28T06:26:35.360Z,1164.00
2023-09-28T06:27:21.946Z,1184.00
2023-09-28T06:28:21.927Z,1204.00
2023-09-28T06:29:21.943Z,1236.00
2023-09-28T06:30:21.923Z,1256.00
2023-09-28T06:31:21.899Z,1288.00
2023-09-28T06:32:21.983Z,1320.00
2023-09-28T06:33:21.872Z,1344.00
2023-09-28T06:34:21.858Z,1376.00
2023-09-28T06:35:21.893Z,1400.00
2023-09-28T06:36:40.077Z,1416.00
2023-09-28T06:37:21.824Z,1440.00
2023-09-28T06:38:21.871Z,1464.00
2023-09-28T06:39:21.808Z,1492.00
2023-09-28T06:40:21.838Z,1532.00
2023-09-28T06:41:21.799Z,1552.00
2023-09-28T06:42:36.207Z,1568.00
2023-09-28T06:43:21.758Z,1572.00
2023-09-28T06:44:21.766Z,1588.00
2023-09-28T06:45:21.738Z,1604.00
2023-09-28T06:46:21.764Z,1608.00
2023-09-28T06:47:21.797Z,1604.00
2023-09-28T06:48:22.584Z,1612.00
2023-09-28T06:49:21.739Z,1608.00
2023-09-28T06:50:21.699Z,1612.00
2023-09-28T06:51:21.698Z,1596.00
2023-09-28T06:52:21.659Z,1588.00
2023-09-28T06:53:21.705Z,1600.00
2023-09-28T06:54:21.642Z,1608.00
2023-09-28T06:55:21.620Z,1612.00
2023-09-28T06:56:21.739Z,1624.00
2023-09-28T06:57:21.604Z,1636.00
2023-09-28T06:58:21.600Z,1640.00
2023-09-28T06:59:21.599Z,1640.00
2023-09-28T07:00:21.575Z,1636.00
2023-09-28T07:01:21.630Z,1640.00
2023-09-28T07:02:21.573Z,1644.00
2023-09-28T07:03:21.582Z,1644.00
2023-09-28T07:04:21.527Z,1660.00
2023-09-28T07:05:21.559Z,1660.00
2023-09-28T07:06:21.513Z,1668.00
2023-09-28T07:07:21.506Z,1676.00
2023-09-28T07:08:21.586Z,1664.00
2023-09-28T07:09:21.466Z,1672.00
2023-09-28T07:10:21.460Z,1676.00
2023-09-28T07:11:21.508Z,1668.00
2023-09-28T07:12:21.432Z,1704.00
2023-09-28T07:13:21.421Z,1676.00
2023-09-28T07:14:21.464Z,1696.00
2023-09-28T07:15:21.421Z,1708.00
2023-09-28T07:16:21.433Z,1708.00
2023-09-28T07:17:21.407Z,1720.00
2023-09-28T07:18:21.362Z,1728.00
2023-09-28T07:19:21.781Z,1736.00
2023-09-28T07:20:21.362Z,1760.00
2023-09-28T07:21:21.375Z,1792.00
2023-09-28T07:22:21.349Z,1820.00
2023-09-28T07:23:21.346Z,1852.00
2023-09-28T07:24:21.299Z,1880.00
2023-09-28T07:25:21.288Z,1908.00
2023-09-28T07:26:21.352Z,1932.00
2023-09-28T07:27:21.266Z,1960.00
2023-09-28T07:28:21.559Z,1988.00
2023-09-28T07:29:21.311Z,1996.00
2023-09-28T07:30:21.237Z,2044.00
2023-09-28T07:31:21.273Z,2060.00
2023-09-28T07:32:21.269Z,2056.00
2023-09-28T07:33:21.316Z,2080.00
2023-09-28T07:34:21.201Z,2100.00
2023-09-28T07:35:21.274Z,2112.00
2023-09-28T07:36:21.194Z,2144.00
2023-09-28T07:37:21.157Z,2164.00
2023-09-28T07:38:21.165Z,2200.00
2023-09-28T07:39:21.166Z,2240.00
2023-09-28T07:40:32.038Z,2276.00
2023-09-28T07:41:21.144Z,2272.00
2023-09-28T07:42:21.111Z,2332.00
2023-09-28T07:43:21.089Z,2436.00
2023-09-28T07:44:21.094Z,2480.00
2023-09-28T07:45:21.085Z,2492.00
2023-09-28T07:46:21.053Z,2516.00
2023-09-28T07:47:21.072Z,2552.00
2023-09-28T07:48:21.087Z,2580.00
2023-09-28T07:49:21.015Z,2596.00
2023-09-28T07:50:21.087Z,2624.00
2023-09-28T07:51:20.991Z,2656.00
2023-09-28T07:52:20.983Z,2692.00
2023-09-28T07:53:20.983Z,2736.00
2023-09-28T07:54:21.179Z,2740.00
2023-09-28T07:55:20.974Z,2772.00
2023-09-28T07:56:20.999Z,2828.00
2023-09-28T07:57:20.927Z,2840.00
2023-09-28T07:58:26.660Z,2832.00
2023-09-28T07:59:20.931Z,2828.00
2023-09-28T08:00:20.934Z,2856.00
2023-09-28T08:01:20.915Z,2876.00
2023-09-28T08:02:20.968Z,2876.00
2023-09-28T08:03:20.933Z,2844.00
2023-09-28T08:04:20.893Z,2868.00
2023-09-28T08:05:20.912Z,2916.00
2023-09-28T08:06:30.373Z,2916.00
2023-09-28T08:07:20.823Z,2940.00
2023-09-28T08:08:20.862Z,2968.00
2023-09-28T08:09:20.786Z,2972.00
2023-09-28T08:10:20.781Z,2984.00
2023-09-28T08:11:20.811Z,3020.00
2023-09-28T08:12:20.757Z,3000.00
2023-09-28T08:13:20.745Z,3048.00
2023-09-28T08:14:20.820Z,3048.00
2023-09-28T08:15:32.669Z,3060.00
2023-09-28T08:16:21.086Z,3088.00
2023-09-28T08:17:23.021Z,3124.00
2023-09-28T08:18:22.123Z,3128.00
2023-09-28T08:19:20.678Z,3140.00
2023-09-28T08:20:20.711Z,3140.00
2023-09-28T08:21:20.686Z,3144.00
2023-09-28T08:22:20.650Z,3120.00
2023-09-28T08:23:20.652Z,3112.00
2023-09-28T08:24:21.934Z,3108.00
2023-09-28T08:25:20.615Z,3108.00
2023-09-28T08:26:20.650Z,3136.00
2023-09-28T08:27:20.594Z,3140.00
2023-09-28T08:28:20.607Z,3128.00
2023-09-28T08:29:20.613Z,3188.00
2023-09-28T08:30:20.579Z,3232.00
2023-09-28T08:31:20.614Z,3260.00
2023-09-28T08:32:20.644Z,3276.00
2023-09-28T08:33:20.537Z,3384.00
2023-09-28T08:34:32.833Z,3356.00
2023-09-28T08:35:20.510Z,3364.00
2023-09-28T08:36:20.551Z,3364.00
2023-09-28T08:37:20.481Z,3456.00
2023-09-28T08:38:20.529Z,3360.00
2023-09-28T08:39:20.513Z,3340.00
2023-09-28T08:40:20.769Z,3316.00
2023-09-28T08:41:20.507Z,3316.00
2023-09-28T08:42:20.428Z,3380.00
2023-09-28T08:43:20.424Z,3300.00
2023-09-28T08:44:20.425Z,3332.00
2023-09-28T08:45:20.400Z,3372.00
2023-09-28T08:46:31.700Z,3408.00
2023-09-28T08:47:20.464Z,3412.00
2023-09-28T08:48:20.410Z,3452.00
2023-09-28T08:49:20.522Z,3496.00
2023-09-28T08:50:20.394Z,3492.00
2023-09-28T08:51:20.334Z,3496.00
2023-09-28T08:52:20.386Z,3532.00
2023-09-28T08:53:20.345Z,3584.00
2023-09-28T08:54:20.291Z,3640.00
2023-09-28T08:55:20.283Z,3628.00
2023-09-28T08:56:20.327Z,3640.00
2023-09-28T08:57:20.253Z,3640.00
2023-09-28T08:58:20.285Z,3712.00
2023-09-28T08:59:20.281Z,3720.00
2023-09-28T09:00:20.223Z,3604.00
2023-09-28T09:01:20.266Z,3652.00
2023-09-28T09:02:20.273Z,3680.00
2023-09-28T09:03:20.268Z,3716.00
2023-09-28T09:04:20.180Z,3676.00
2023-09-28T09:05:20.227Z,3732.00
2023-09-28T09:06:21.556Z,3812.00
2023-09-28T09:07:20.157Z,3804.00
2023-09-28T09:08:20.211Z,3812.00
2023-09-28T09:09:20.132Z,3864.00
2023-09-28T09:10:20.124Z,3868.00
2023-09-28T09:11:20.131Z,3892.00
2023-09-28T09:12:20.101Z,3936.00
2023-09-28T09:13:20.121Z,3924.00
2023-09-28T09:14:20.188Z,4040.00
2023-09-28T09:15:20.068Z,4080.00
2023-09-28T09:16:20.101Z,3232.00
2023-09-28T09:17:20.108Z,4568.00
2023-09-28T09:18:20.205Z,3268.00
2023-09-28T09:19:20.035Z,4316.00
2023-09-28T09:20:20.026Z,4420.00
2023-09-28T09:21:19.993Z,4392.00
2023-09-28T09:22:19.986Z,4308.00
2023-09-28T09:23:20.026Z,4220.00
2023-09-28T09:24:20.064Z,4200.00
2023-09-28T09:25:19.953Z,4312.00
2023-09-28T09:26:19.981Z,4544.00
2023-09-28T09:27:19.930Z,4512.00
2023-09-28T09:28:19.919Z,4476.00
2023-09-28T09:29:19.937Z,4380.00
2023-09-28T09:30:19.900Z,4344.00
2023-09-28T09:31:19.915Z,4316.00
2023-09-28T09:32:19.913Z,4432.00
2023-09-28T09:33:19.944Z,4556.00
2023-09-28T09:34:19.934Z,4608.00
2023-09-28T09:35:19.857Z,4784.00
2023-09-28T09:36:19.841Z,4792.00
2023-09-28T09:37:19.825Z,4620.00
2023-09-28T09:38:19.839Z,5100.00
2023-09-28T09:39:19.803Z,4996.00
2023-09-28T09:40:19.829Z,4904.00
2023-09-28T09:41:19.835Z,5244.00
2023-09-28T09:42:19.769Z,5276.00
2023-09-28T09:43:19.774Z,5164.00
2023-09-28T09:44:20.117Z,5096.00
2023-09-28T09:45:19.999Z,5060.00
2023-09-28T09:46:19.759Z,5356.00
2023-09-28T09:47:19.831Z,5116.00
2023-09-28T09:48:19.754Z,5160.00
2023-09-28T09:49:19.908Z,5472.00
2023-09-28T09:50:19.730Z,5664.00
2023-09-28T09:51:19.687Z,4344.00
2023-09-28T09:52:19.648Z,5456.00
2023-09-28T09:53:19.683Z,4728.00
2023-09-28T09:54:19.630Z,4328.00
2023-09-28T09:55:19.622Z,4768.00
2023-09-28T09:56:19.651Z,3964.00
2023-09-28T09:57:19.593Z,3920.00
2023-09-28T09:58:19.586Z,4192.00
2023-09-28T09:59:19.630Z,4732.00
2023-09-28T10:00:19.563Z,4804.00
2023-09-28T10:01:19.672Z,4216.00
2023-09-28T10:02:19.590Z,3936.00
2023-09-28T10:03:19.614Z,4000.00
2023-09-28T10:04:19.548Z,4232.00
2023-09-28T10:05:19.554Z,5108.00
2023-09-28T10:06:19.542Z,5144.00
2023-09-28T10:07:19.478Z,5260.00
2023-09-28T10:08:19.512Z,4804.00
2023-09-28T10:09:19.464Z,5288.00
2023-09-28T10:10:19.450Z,4740.00
2023-09-28T10:11:19.531Z,5476.00
2023-09-28T10:12:19.443Z,5356.00
2023-09-28T10:13:19.419Z,5368.00
2023-09-28T10:14:19.474Z,3992.00
2023-09-28T10:15:19.393Z,5212.00
2023-09-28T10:16:19.459Z,4700.00
2023-09-28T10:17:19.446Z,5444.00
2023-09-28T10:18:19.440Z,5380.00
2023-09-28T10:19:19.349Z,5420.00
2023-09-28T10:20:19.345Z,5444.00
2023-09-28T10:21:19.339Z,5332.00
2023-09-28T10:22:19.333Z,5388.00
2023-09-28T10:23:19.330Z,5544.00
2023-09-28T10:24:19.288Z,5584.00
2023-09-28T10:25:19.294Z,5596.00
2023-09-28T10:26:19.361Z,5396.00
2023-09-28T10:27:19.343Z,5392.00
2023-09-28T10:28:19.249Z,5836.00
2023-09-28T10:29:19.292Z,5964.00
2023-09-28T10:30:19.234Z,5796.00
2023-09-28T10:31:19.278Z,5204.00
2023-09-28T10:32:19.252Z,5564.00
2023-09-28T10:33:19.258Z,5324.00
2023-09-28T10:34:19.203Z,5448.00
2023-09-28T10:35:19.214Z,5320.00
2023-09-28T10:36:19.160Z,5372.00
2023-09-28T10:37:19.183Z,5504.00
2023-09-28T10:38:19.240Z,5196.00
2023-09-28T10:39:19.126Z,4884.00
2023-09-28T10:40:19.111Z,5592.00
2023-09-28T10:41:19.134Z,5168.00
2023-09-28T10:42:21.577Z,5408.00
2023-09-28T10:43:19.106Z,5356.00
2023-09-28T10:44:19.102Z,5248.00
2023-09-28T10:45:19.061Z,5536.00
2023-09-28T10:46:19.077Z,5368.00
2023-09-28T10:47:19.117Z,4972.00
2023-09-28T10:48:19.180Z,4336.00
2023-09-28T10:49:19.019Z,4232.00
2023-09-28T10:50:19.026Z,5544.00
2023-09-28T10:51:19.004Z,5356.00
2023-09-28T10:52:18.975Z,5256.00
2023-09-28T10:53:19.031Z,4792.00
2023-09-28T10:54:18.958Z,5076.00
2023-09-28T10:55:19.014Z,6120.00
2023-09-28T10:56:18.954Z,6020.00
2023-09-28T10:57:18.932Z,6152.00
2023-09-28T10:58:18.931Z,5924.00
2023-09-28T10:59:19.016Z,5956.00
2023-09-28T11:00:18.901Z,5888.00
2023-09-28T11:01:18.908Z,5992.00
2023-09-28T11:02:18.933Z,5880.00
2023-09-28T11:03:19.089Z,5944.00
2023-09-28T11:04:23.241Z,6012.00
2023-09-28T11:05:21.460Z,5756.00
2023-09-28T11:06:18.979Z,5700.00
2023-09-28T11:07:18.873Z,5816.00
2023-09-28T11:08:18.835Z,5736.00
2023-09-28T11:09:18.799Z,5520.00
2023-09-28T11:10:18.802Z,5224.00
2023-09-28T11:11:18.832Z,4528.00
2023-09-28T11:12:18.762Z,4856.00
2023-09-28T11:13:18.759Z,4868.00
2023-09-28T11:14:18.797Z,5160.00
2023-09-28T11:15:18.796Z,3852.00
2023-09-28T11:16:18.750Z,4456.00
2023-09-28T11:17:18.775Z,5268.00
2023-09-28T11:18:18.713Z,6212.00
2023-09-28T11:19:18.695Z,5008.00
2023-09-28T11:20:18.715Z,5940.00
2023-09-28T11:21:18.674Z,6204.00
2023-09-28T11:22:18.651Z,6316.00
2023-09-28T11:23:18.697Z,6056.00
2023-09-28T11:24:18.631Z,5880.00
2023-09-28T11:25:30.420Z,5440.00
2023-09-28T11:26:18.655Z,5832.00
2023-09-28T11:27:18.624Z,5688.00
2023-09-28T11:28:18.587Z,5980.00
2023-09-28T11:29:18.600Z,4344.00
2023-09-28T11:30:18.614Z,5720.00
2023-09-28T11:31:18.600Z,5152.00
2023-09-28T11:32:18.601Z,4640.00
2023-09-28T11:33:18.566Z,4324.00
2023-09-28T11:34:18.537Z,4140.00
2023-09-28T11:35:18.581Z,3896.00
2023-09-28T11:36:18.525Z,3996.00
2023-09-28T11:37:18.494Z,3924.00
2023-09-28T11:38:18.493Z,4248.00
2023-09-28T11:39:18.468Z,4456.00
2023-09-28T11:40:18.455Z,4068.00
2023-09-28T11:41:18.547Z,4640.00
2023-09-28T11:42:18.461Z,3920.00
2023-09-28T11:43:18.426Z,3812.00
2023-09-28T11:44:18.450Z,3784.00
2023-09-28T11:45:18.403Z,3600.00
2023-09-28T11:46:18.467Z,3560.00
2023-09-28T11:47:19.535Z,3712.00
2023-09-28T11:48:18.387Z,3964.00
2023-09-28T11:49:18.363Z,4300.00
2023-09-28T11:50:18.350Z,4512.00
2023-09-28T11:51:18.335Z,4384.00
2023-09-28T11:52:18.353Z,4336.00
2023-09-28T11:53:18.341Z,4132.00
2023-09-28T11:54:18.307Z,4216.00
2023-09-28T11:55:18.295Z,4296.00
2023-09-28T11:56:18.371Z,4352.00
2023-09-28T11:57:18.317Z,4292.00
2023-09-28T11:58:20.127Z,4324.00
2023-09-28T11:59:18.691Z,4324.00
2023-09-28T12:00:18.238Z,4508.00
2023-09-28T12:01:18.229Z,4436.00
2023-09-28T12:02:18.293Z,4720.00
2023-09-28T12:03:18.544Z,4688.00
2023-09-28T12:04:18.213Z,4668.00
2023-09-28T12:05:18.237Z,4536.00
2023-09-28T12:06:18.209Z,4120.00
2023-09-28T12:07:18.174Z,4016.00
2023-09-28T12:08:18.189Z,5740.00
2023-09-28T12:09:18.137Z,4524.00
2023-09-28T12:10:18.118Z,4452.00
2023-09-28T12:11:18.142Z,4464.00
2023-09-28T12:12:18.096Z,4644.00
2023-09-28T12:13:18.128Z,4756.00
2023-09-28T12:14:18.113Z,5124.00
2023-09-28T12:15:18.084Z,5368.00
2023-09-28T12:16:18.096Z,5452.00
2023-09-28T12:17:18.121Z,5984.00
2023-09-28T12:18:18.106Z,4636.00
2023-09-28T12:19:18.044Z,4428.00
2023-09-28T12:20:18.125Z,4260.00
2023-09-28T12:21:18.009Z,5156.00
2023-09-28T12:22:18.065Z,4640.00
2023-09-28T12:23:18.030Z,5576.00
2023-09-28T12:24:17.967Z,5292.00
2023-09-28T12:25:17.958Z,4668.00
2023-09-28T12:26:17.965Z,4360.00
2023-09-28T12:27:17.937Z,5116.00
2023-09-28T12:28:17.958Z,5184.00
2023-09-28T12:29:17.947Z,4116.00
2023-09-28T12:30:17.900Z,3812.00
2023-09-28T12:31:17.944Z,3732.00
2023-09-28T12:32:17.934Z,3920.00
2023-09-28T12:33:17.895Z,3700.00
2023-09-28T12:34:17.873Z,3792.00
2023-09-28T12:35:17.878Z,4360.00
2023-09-28T12:36:17.973Z,4648.00